Time;durP1;ratioP1;P1;durP2;ratioP2;P2;SDS_P1;SDS_P2;PMS_P1;PMS_P2;Temp;Humidity;BMP_temperature;BMP_pressure;BME280_temperature;BME280_humidity;BME280_pressure;Samples;Min_cycle;Max_cycle;Signal;HPM_P1;HPM_P2
2023/01/20 00:00:02;;;;;;;14.48;7.07;;;;;;;;;;6342231;22;20615;-62
2023/01/20 00:02:28;;;;;;;16.27;7.45;;;;;;;;;;6342451;22;20166;-62
2023/01/20 00:04:54;;;;;;;15.15;6.38;;;;;;;;;;6341864;22;20485;-62
2023/01/20 00:07:20;;;;;;;18.23;7.35;;;;;;;;;;6342332;22;20164;-61
2023/01/20 00:09:46;;;;;;;15.85;6.28;;;;;;;;;;6342409;22;20143;-62
2023/01/20 00:12:12;;;;;;;14.07;6.95;;;;;;;;;;6342237;22;20667;-62
2023/01/20 00:14:38;;;;;;;19.73;7.53;;;;;;;;;;6342237;22;20177;-62
2023/01/20 00:17:04;;;;;;;17.33;6.95;;;;;;;;;;6343343;22;20149;-62
2023/01/20 00:19:30;;;;;;;16.15;7.40;;;;;;;;;;6341943;22;20209;-62
2023/01/20 00:21:56;;;;;;;16.38;7.22;;;;;;;;;;6341988;22;20154;-61
2023/01/20 00:24:22;;;;;;;21.08;7.57;;;;;;;;;;6342127;22;20142;-62
2023/01/20 00:26:48;;;;;;;18.58;7.18;;;;;;;;;;6342113;22;20196;-62
2023/01/20 00:29:14;;;;;;;16.60;6.78;;;;;;;;;;6342021;22;20166;-62
2023/01/20 00:31:40;;;;;;;18.65;7.32;;;;;;;;;;6342154;22;20289;-59
2023/01/20 00:34:06;;;;;;;17.35;6.15;;;;;;;;;;6342247;22;20485;-62
2023/01/20 00:36:32;;;;;;;12.63;6.25;;;;;;;;;;6341635;22;20177;-63
2023/01/20 00:38:58;;;;;;;14.50;6.40;;;;;;;;;;6341562;22;20181;-63
2023/01/20 00:41:24;;;;;;;21.27;6.35;;;;;;;;;;6341819;22;20142;-62
2023/01/20 00:43:50;;;;;;;14.57;6.93;;;;;;;;;;6341768;22;20218;-61
2023/01/20 00:46:16;;;;;;;11.48;5.47;;;;;;;;;;6341673;22;20145;-63
2023/01/20 00:48:42;;;;;;;15.43;6.22;;;;;;;;;;6341900;22;20233;-62
2023/01/20 00:51:09;;;;;;;16.45;5.50;;;;;;;;;;6341920;22;20170;-62
2023/01/20 00:53:35;;;;;;;19.73;6.32;;;;;;;;;;6342099;22;20156;-63
2023/01/20 00:56:01;;;;;;;15.77;6.20;;;;;;;;;;6341353;22;20446;-62
2023/01/20 00:58:27;;;;;;;14.25;6.15;;;;;;;;;;6341808;22;20232;-64
2023/01/20 01:00:54;;;;;;;12.98;6.32;;;;;;;;;;6341872;22;20449;-63
2023/01/20 01:03:20;;;;;;;13.80;6.22;;;;;;;;;;6341415;22;20163;-63
2023/01/20 01:05:46;;;;;;;15.32;6.13;;;;;;;;;;6341350;22;20142;-64
2023/01/20 01:08:12;;;;;;;16.77;6.68;;;;;;;;;;6341835;22;20149;-62
2023/01/20 01:10:39;;;;;;;13.80;6.38;;;;;;;;;;6340881;22;20178;-63
2023/01/20 01:13:06;;;;;;;16.05;6.18;;;;;;;;;;6341986;22;20171;-61
2023/01/20 01:15:31;;;;;;;16.58;6.22;;;;;;;;;;6341766;22;20152;-63
2023/01/20 01:17:58;;;;;;;18.40;6.55;;;;;;;;;;6341404;22;20221;-63
2023/01/20 01:20:24;;;;;;;14.48;6.78;;;;;;;;;;6340918;22;20618;-62
2023/01/20 01:22:50;;;;;;;15.82;6.85;;;;;;;;;;6341773;22;20139;-63
2023/01/20 01:25:17;;;;;;;17.15;7.20;;;;;;;;;;6341530;22;20177;-63
2023/01/20 01:27:43;;;;;;;13.63;6.32;;;;;;;;;;6341283;22;20138;-60
2023/01/20 01:30:09;;;;;;;13.35;7.07;;;;;;;;;;6341537;22;20706;-63
2023/01/20 01:32:35;;;;;;;12.52;6.18;;;;;;;;;;6340706;22;20142;-63
2023/01/20 01:35:01;;;;;;;16.17;6.88;;;;;;;;;;6341430;22;20210;-63
2023/01/20 01:37:27;;;;;;;12.55;6.38;;;;;;;;;;6341580;22;20203;-63
2023/01/20 01:39:53;;;;;;;10.48;6.28;;;;;;;;;;6341293;22;20166;-63
2023/01/20 01:42:22;;;;;;;16.70;7.22;;;;;;;;;;6341190;22;20146;-63
2023/01/20 01:45:14;;;;;;;16.27;7.72;;;;;;;;;;6341172;22;20557;-63
2023/01/20 01:47:49;;;;;;;14.30;6.50;;;;;;;;;;6335678;22;20558;-63
2023/01/20 01:50:17;;;;;;;19.50;6.95;;;;;;;;;;6341350;22;20146;-63
2023/01/20 01:52:44;;;;;;;15.85;6.88;;;;;;;;;;6341098;22;20145;-63
2023/01/20 01:55:11;;;;;;;21.58;6.68;;;;;;;;;;6341345;22;20265;-63
2023/01/20 01:57:36;;;;;;;16.60;6.68;;;;;;;;;;6341205;22;20576;-63
2023/01/20 02:00:05;;;;;;;14.73;7.10;;;;;;;;;;6341700;22;20166;-63
2023/01/20 02:02:32;;;;;;;16.30;7.07;;;;;;;;;;6341277;22;20208;-63
2023/01/20 02:04:58;;;;;;;18.13;7.30;;;;;;;;;;6341499;22;20138;-63
2023/01/20 02:07:24;;;;;;;14.80;6.88;;;;;;;;;;6341992;22;20142;-63
2023/01/20 02:09:50;;;;;;;15.93;7.43;;;;;;;;;;6341050;22;20134;-63
2023/01/20 02:12:18;;;;;;;14.82;7.75;;;;;;;;;;6341197;22;20225;-63
2023/01/20 02:14:50;;;;;;;25.05;7.50;;;;;;;;;;6341095;22;20145;-63
2023/01/20 02:17:31;;;;;;;15.45;7.70;;;;;;;;;;6341205;22;20232;-63
2023/01/20 02:19:56;;;;;;;15.00;7.50;;;;;;;;;;6341225;22;20162;-62
2023/01/20 02:22:22;;;;;;;19.20;7.90;;;;;;;;;;6342668;22;20226;-63
2023/01/20 02:25:04;;;;;;;16.63;7.53;;;;;;;;;;6343166;22;20393;-63
2023/01/20 02:27:54;;;;;;;16.05;7.82;;;;;;;;;;6343373;22;20414;-62
2023/01/20 02:30:23;;;;;;;23.00;9.25;;;;;;;;;;6342880;22;20440;-63
2023/01/20 02:32:54;;;;;;;18.63;8.43;;;;;;;;;;6342758;22;20134;-62
2023/01/20 02:35:23;;;;;;;23.02;8.70;;;;;;;;;;6342803;22;20134;-63
2023/01/20 02:38:08;;;;;;;18.80;8.70;;;;;;;;;;6343208;22;20153;-61
2023/01/20 02:40:47;;;;;;;18.08;8.70;;;;;;;;;;6343038;22;20265;-63
2023/01/20 02:43:32;;;;;;;20.02;8.85;;;;;;;;;;6343267;22;20427;-62
2023/01/20 02:46:16;;;;;;;20.98;9.60;;;;;;;;;;6342907;22;20224;-63
2023/01/20 02:48:52;;;;;;;21.40;9.25;;;;;;;;;;6343145;22;20161;-63
2023/01/20 02:51:25;;;;;;;19.38;10.10;;;;;;;;;;6343435;22;20145;-63
2023/01/20 02:53:57;;;;;;;21.92;10.35;;;;;;;;;;6343057;22;20180;-63
2023/01/20 02:56:25;;;;;;;23.23;9.45;;;;;;;;;;6342780;22;20139;-63
2023/01/20 02:59:11;;;;;;;21.15;8.80;;;;;;;;;;6342808;22;20245;-63
2023/01/20 03:01:40;;;;;;;26.30;9.95;;;;;;;;;;6342410;22;20149;-63
2023/01/20 03:04:09;;;;;;;23.58;10.13;;;;;;;;;;6342984;22;20138;-62
2023/01/20 03:06:37;;;;;;;22.73;10.88;;;;;;;;;;6342824;22;20230;-63
2023/01/20 03:09:06;;;;;;;29.33;11.18;;;;;;;;;;6342794;22;20490;-63
2023/01/20 03:11:35;;;;;;;20.45;10.38;;;;;;;;;;6342460;22;20497;-63
2023/01/20 03:14:05;;;;;;;22.35;10.23;;;;;;;;;;6342791;22;20146;-63
2023/01/20 03:16:32;;;;;;;18.95;9.27;;;;;;;;;;6342786;22;20138;-62
2023/01/20 03:18:58;;;;;;;22.65;9.50;;;;;;;;;;6343714;22;20177;-60
2023/01/20 03:21:24;;;;;;;25.33;10.32;;;;;;;;;;6342653;22;20158;-62
2023/01/20 03:23:53;;;;;;;24.25;10.77;;;;;;;;;;6343241;22;20146;-63
2023/01/20 03:26:21;;;;;;;21.38;10.60;;;;;;;;;;6342946;22;20145;-62
2023/01/20 03:28:48;;;;;;;22.60;9.25;;;;;;;;;;6344785;22;20211;-62
2023/01/20 03:31:14;;;;;;;25.83;10.43;;;;;;;;;;6344161;22;20230;-63
2023/01/20 03:33:40;;;;;;;23.88;9.32;;;;;;;;;;6342376;22;20600;-63
2023/01/20 03:36:06;;;;;;;21.08;9.98;;;;;;;;;;6342251;22;20462;-63
2023/01/20 03:38:32;;;;;;;24.23;9.90;;;;;;;;;;6342398;22;20142;-63
2023/01/20 03:41:04;;;;;;;17.85;9.48;;;;;;;;;;6342537;22;20153;-63
2023/01/20 03:43:36;;;;;;;23.05;9.70;;;;;;;;;;6342470;22;20200;-63
2023/01/20 03:46:05;;;;;;;21.27;9.70;;;;;;;;;;6342586;22;20205;-63
2023/01/20 03:48:38;;;;;;;21.50;8.63;;;;;;;;;;6342432;22;20497;-63
2023/01/20 03:51:10;;;;;;;20.45;9.82;;;;;;;;;;6342609;22;20137;-63
2023/01/20 03:53:46;;;;;;;24.65;9.77;;;;;;;;;;6342461;22;20127;-63
2023/01/20 03:56:16;;;;;;;21.80;9.38;;;;;;;;;;6342285;22;20142;-63
2023/01/20 03:58:43;;;;;;;22.50;9.82;;;;;;;;;;6342277;22;20219;-63
2023/01/20 04:01:11;;;;;;;17.70;8.43;;;;;;;;;;6342328;22;20134;-63
2023/01/20 04:03:38;;;;;;;21.85;8.95;;;;;;;;;;6341962;22;20142;-63
2023/01/20 04:06:06;;;;;;;22.33;9.70;;;;;;;;;;6343061;22;20142;-63
2023/01/20 04:08:36;;;;;;;21.02;8.75;;;;;;;;;;6341856;22;20440;-63
2023/01/20 04:11:06;;;;;;;21.40;9.70;;;;;;;;;;6342155;22;20149;-62
2023/01/20 04:13:32;;;;;;;17.63;8.55;;;;;;;;;;6342125;22;20138;-63
2023/01/20 04:15:59;;;;;;;24.83;9.77;;;;;;;;;;6342226;22;20166;-63
2023/01/20 04:18:25;;;;;;;21.77;9.68;;;;;;;;;;6342002;22;20146;-63
2023/01/20 04:20:52;;;;;;;21.52;9.93;;;;;;;;;;6341648;22;20254;-63
2023/01/20 04:23:27;;;;;;;21.73;9.65;;;;;;;;;;6342135;22;20228;-63
2023/01/20 04:25:53;;;;;;;26.10;10.27;;;;;;;;;;6341906;22;20219;-63
2023/01/20 04:28:19;;;;;;;24.55;9.88;;;;;;;;;;6341805;22;20188;-63
2023/01/20 04:30:45;;;;;;;20.73;10.20;;;;;;;;;;6342032;22;20215;-63
2023/01/20 04:33:11;;;;;;;25.05;9.68;;;;;;;;;;6341693;22;20142;-62
2023/01/20 04:35:37;;;;;;;23.55;10.45;;;;;;;;;;6342029;22;20195;-62
2023/01/20 04:38:02;;;;;;;21.17;10.90;;;;;;;;;;6342005;22;20142;-62
2023/01/20 04:40:28;;;;;;;20.25;10.55;;;;;;;;;;6341998;22;20162;-62
2023/01/20 04:42:54;;;;;;;28.13;11.18;;;;;;;;;;6341873;22;20608;-62
2023/01/20 04:45:20;;;;;;;22.95;10.68;;;;;;;;;;6341841;22;20410;-63
2023/01/20 04:47:46;;;;;;;24.92;11.02;;;;;;;;;;6341456;22;20481;-63
2023/01/20 04:50:13;;;;;;;25.50;11.60;;;;;;;;;;6341847;22;20448;-60
2023/01/20 04:52:40;;;;;;;27.75;12.30;;;;;;;;;;6341860;22;20153;-62
2023/01/20 04:55:06;;;;;;;26.83;11.38;;;;;;;;;;6341694;22;20142;-62
2023/01/20 04:57:32;;;;;;;27.00;11.77;;;;;;;;;;6341536;22;20142;-63
2023/01/20 04:59:58;;;;;;;24.65;11.85;;;;;;;;;;6341541;22;20162;-62
2023/01/20 05:02:24;;;;;;;28.38;11.32;;;;;;;;;;6341632;22;20142;-62
2023/01/20 05:04:50;;;;;;;28.98;11.23;;;;;;;;;;6341561;22;20160;-62
2023/01/20 05:07:16;;;;;;;27.52;11.50;;;;;;;;;;6341952;22;20138;-62
2023/01/20 05:09:41;;;;;;;23.00;11.15;;;;;;;;;;6341722;22;20150;-62
2023/01/20 05:12:07;;;;;;;29.70;12.38;;;;;;;;;;6341411;22;20199;-62
2023/01/20 05:14:33;;;;;;;29.95;12.48;;;;;;;;;;6341629;22;20153;-62
2023/01/20 05:16:59;;;;;;;30.60;13.07;;;;;;;;;;6341668;22;20533;-62
2023/01/20 05:19:25;;;;;;;25.70;12.15;;;;;;;;;;6341256;22;20177;-62
2023/01/20 05:21:51;;;;;;;28.20;11.93;;;;;;;;;;6341266;22;20158;-62
2023/01/20 05:24:17;;;;;;;26.20;12.65;;;;;;;;;;6341313;22;20279;-61
2023/01/20 05:26:43;;;;;;;31.92;13.80;;;;;;;;;;6341856;22;20196;-62
2023/01/20 05:29:09;;;;;;;26.77;12.30;;;;;;;;;;6341363;22;20142;-62
2023/01/20 05:31:37;;;;;;;30.08;13.82;;;;;;;;;;6341687;22;20557;-62
2023/01/20 05:34:03;;;;;;;27.40;12.73;;;;;;;;;;6341553;22;20152;-63
2023/01/20 05:36:31;;;;;;;32.05;13.63;;;;;;;;;;6341581;22;20153;-62
2023/01/20 05:38:57;;;;;;;30.52;13.07;;;;;;;;;;6341144;22;20601;-62
2023/01/20 05:41:23;;;;;;;33.67;13.93;;;;;;;;;;6341288;22;20199;-62
2023/01/20 05:43:52;;;;;;;28.35;12.27;;;;;;;;;;6341486;22;20192;-62
2023/01/20 05:46:18;;;;;;;32.03;13.38;;;;;;;;;;6341578;22;20170;-61
2023/01/20 05:48:43;;;;;;;36.58;14.18;;;;;;;;;;6340770;22;20207;-62
2023/01/20 05:51:09;;;;;;;32.92;13.75;;;;;;;;;;6341143;22;20146;-62
2023/01/20 05:53:35;;;;;;;33.63;14.55;;;;;;;;;;6341357;22;20181;-61
2023/01/20 05:56:03;;;;;;;30.92;14.95;;;;;;;;;;6341135;22;20200;-62
2023/01/20 05:58:29;;;;;;;39.92;15.57;;;;;;;;;;6341068;22;20142;-62
2023/01/20 06:00:55;;;;;;;33.20;14.50;;;;;;;;;;6340906;22;20568;-62
2023/01/20 06:03:21;;;;;;;36.90;15.43;;;;;;;;;;6341157;22;20229;-62
2023/01/20 06:05:48;;;;;;;32.15;15.40;;;;;;;;;;6341251;22;20221;-62
2023/01/20 06:08:14;;;;;;;40.47;15.20;;;;;;;;;;6340934;22;20236;-61
2023/01/20 06:10:40;;;;;;;33.83;15.65;;;;;;;;;;6341520;22;20199;-62
2023/01/20 06:13:06;;;;;;;36.72;15.52;;;;;;;;;;6341256;22;20520;-62
2023/01/20 06:15:32;;;;;;;40.13;16.08;;;;;;;;;;6341089;22;20169;-62
2023/01/20 06:17:58;;;;;;;35.85;15.77;;;;;;;;;;6341365;22;20165;-62
2023/01/20 06:20:24;;;;;;;36.53;16.08;;;;;;;;;;6340822;22;20201;-62
2023/01/20 06:22:54;;;;;;;37.88;16.27;;;;;;;;;;6340928;22;20141;-62
2023/01/20 06:25:20;;;;;;;37.35;16.77;;;;;;;;;;6341297;22;20160;-62
2023/01/20 06:27:46;;;;;;;38.13;16.80;;;;;;;;;;6340943;22;20550;-63
2023/01/20 06:30:12;;;;;;;35.63;16.45;;;;;;;;;;6341090;22;20561;-62
2023/01/20 06:32:38;;;;;;;39.17;17.27;;;;;;;;;;6340868;22;20138;-63
2023/01/20 06:35:04;;;;;;;38.95;16.67;;;;;;;;;;6341040;22;20142;-62
2023/01/20 06:37:30;;;;;;;33.28;16.27;;;;;;;;;;6340887;22;20401;-62
2023/01/20 06:39:56;;;;;;;39.08;17.45;;;;;;;;;;6340613;22;20169;-62
2023/01/20 06:42:22;;;;;;;40.53;17.17;;;;;;;;;;6341091;22;20139;-62
2023/01/20 06:44:48;;;;;;;35.83;15.88;;;;;;;;;;6341022;22;20564;-62
2023/01/20 06:47:13;;;;;;;39.58;17.60;;;;;;;;;;6341191;22;20142;-62
2023/01/20 06:49:39;;;;;;;38.40;17.13;;;;;;;;;;6340940;22;20146;-62
2023/01/20 06:52:05;;;;;;;35.28;17.30;;;;;;;;;;6340985;22;20238;-61
2023/01/20 06:54:31;;;;;;;35.35;17.80;;;;;;;;;;6340755;22;20215;-62
2023/01/20 06:56:57;;;;;;;38.30;17.83;;;;;;;;;;6341529;22;20138;-63
2023/01/20 06:59:23;;;;;;;37.65;18.17;;;;;;;;;;6341729;22;20174;-62
2023/01/20 07:01:49;;;;;;;33.45;16.05;;;;;;;;;;6342157;22;20233;-63
2023/01/20 07:04:15;;;;;;;33.47;16.83;;;;;;;;;;6341897;22;20146;-62
2023/01/20 07:06:41;;;;;;;40.42;17.42;;;;;;;;;;6342645;22;20157;-62
2023/01/20 07:09:09;;;;;;;38.10;16.77;;;;;;;;;;6343887;22;20407;-62
2023/01/20 07:11:36;;;;;;;36.70;17.08;;;;;;;;;;6342680;22;20150;-63
2023/01/20 07:14:02;;;;;;;37.00;16.58;;;;;;;;;;6343370;22;20467;-62
2023/01/20 07:16:28;;;;;;;32.15;15.60;;;;;;;;;;6343388;22;20147;-61
2023/01/20 07:18:54;;;;;;;34.25;16.48;;;;;;;;;;6342560;22;20174;-61
2023/01/20 07:21:20;;;;;;;31.00;15.52;;;;;;;;;;6342632;22;20211;-60
2023/01/20 07:23:46;;;;;;;34.30;16.35;;;;;;;;;;6342858;22;20180;-62
2023/01/20 07:26:14;;;;;;;32.13;15.25;;;;;;;;;;6342854;22;20221;-62
2023/01/20 07:28:40;;;;;;;29.10;15.73;;;;;;;;;;6342874;22;20139;-62
2023/01/20 07:31:08;;;;;;;30.38;14.55;;;;;;;;;;6342580;22;20198;-62
2023/01/20 07:33:34;;;;;;;30.58;14.80;;;;;;;;;;6342391;22;20444;-62
2023/01/20 07:36:00;;;;;;;28.55;14.73;;;;;;;;;;6342600;22;20505;-63
2023/01/20 07:38:27;;;;;;;29.10;14.82;;;;;;;;;;6342630;22;20297;-63
2023/01/20 07:40:53;;;;;;;33.13;15.23;;;;;;;;;;6342848;22;20205;-61
2023/01/20 07:43:19;;;;;;;28.35;14.82;;;;;;;;;;6343872;22;20150;-62
2023/01/20 07:45:44;;;;;;;30.23;15.93;;;;;;;;;;6361941;22;20145;-63
2023/01/20 07:48:10;;;;;;;28.58;14.20;;;;;;;;;;6362109;22;20150;-62
2023/01/20 07:50:37;;;;;;;29.95;13.88;;;;;;;;;;6360124;22;20229;-63
2023/01/20 07:53:03;;;;;;;27.15;14.57;;;;;;;;;;6356715;22;20160;-62
2023/01/20 07:55:29;;;;;;;29.98;14.10;;;;;;;;;;6355117;22;20561;-63
2023/01/20 07:57:55;;;;;;;30.67;14.55;;;;;;;;;;6351463;22;20207;-63
2023/01/20 08:00:21;;;;;;;28.38;14.20;;;;;;;;;;6350598;22;20226;-63
2023/01/20 08:02:47;;;;;;;24.17;13.43;;;;;;;;;;6345443;22;20142;-62
2023/01/20 08:05:13;;;;;;;27.70;15.38;;;;;;;;;;6342980;22;20146;-63
2023/01/20 08:07:39;;;;;;;26.58;14.07;;;;;;;;;;6342761;22;20149;-62
2023/01/20 08:10:10;;;;;;;28.30;13.80;;;;;;;;;;6342817;22;20233;-62
2023/01/20 08:12:36;;;;;;;26.55;13.60;;;;;;;;;;6341975;22;20483;-61
2023/01/20 08:15:02;;;;;;;24.65;13.02;;;;;;;;;;6341993;22;20161;-61
2023/01/20 08:17:28;;;;;;;23.58;13.02;;;;;;;;;;6342338;22;20140;-62
2023/01/20 08:19:54;;;;;;;26.17;13.48;;;;;;;;;;6341645;22;20214;-63
2023/01/20 08:22:20;;;;;;;24.38;13.93;;;;;;;;;;6342251;22;20203;-61
2023/01/20 08:24:46;;;;;;;24.88;13.30;;;;;;;;;;6342377;22;20501;-61
2023/01/20 08:27:12;;;;;;;26.75;13.88;;;;;;;;;;6342567;22;20603;-62
2023/01/20 08:29:38;;;;;;;25.95;13.30;;;;;;;;;;6342056;22;20217;-63
2023/01/20 08:32:04;;;;;;;25.90;13.00;;;;;;;;;;6342128;22;20150;-63
2023/01/20 08:34:30;;;;;;;21.85;13.50;;;;;;;;;;6342246;22;20139;-63
2023/01/20 08:36:57;;;;;;;26.20;13.18;;;;;;;;;;6342254;22;20138;-63
2023/01/20 08:39:23;;;;;;;25.40;13.48;;;;;;;;;;6342222;22;20166;-62
2023/01/20 08:41:49;;;;;;;27.08;13.63;;;;;;;;;;6341856;22;20135;-61
2023/01/20 08:44:16;;;;;;;24.30;12.48;;;;;;;;;;6342370;22;20149;-62
2023/01/20 08:46:43;;;;;;;25.15;13.35;;;;;;;;;;6341979;22;20138;-62
2023/01/20 08:49:11;;;;;;;20.52;11.23;;;;;;;;;;6342083;22;20445;-63
2023/01/20 08:51:37;;;;;;;22.33;12.35;;;;;;;;;;6341950;22;20150;-63
2023/01/20 08:54:04;;;;;;;22.60;11.45;;;;;;;;;;6342221;22;20223;-61
2023/01/20 08:56:30;;;;;;;21.45;12.07;;;;;;;;;;6342102;22;20161;-63
2023/01/20 08:58:57;;;;;;;23.50;12.82;;;;;;;;;;6342164;22;20176;-63
2023/01/20 09:01:24;;;;;;;21.95;12.43;;;;;;;;;;6341905;22;20142;-62
2023/01/20 09:03:50;;;;;;;23.02;12.35;;;;;;;;;;6342758;22;20142;-63
2023/01/20 09:06:16;;;;;;;22.80;11.68;;;;;;;;;;6341596;22;20431;-63
2023/01/20 09:08:42;;;;;;;22.60;12.32;;;;;;;;;;6342061;22;20538;-62
2023/01/20 09:11:13;;;;;;;25.08;13.15;;;;;;;;;;6341675;22;20170;-63
2023/01/20 09:13:39;;;;;;;24.33;12.02;;;;;;;;;;6342538;22;20197;-63
2023/01/20 09:16:05;;;;;;;22.63;12.32;;;;;;;;;;6341804;22;20150;-62
2023/01/20 09:18:32;;;;;;;20.35;11.75;;;;;;;;;;6342027;22;20211;-63
2023/01/20 09:21:00;;;;;;;25.25;12.13;;;;;;;;;;6340471;22;20208;-63
2023/01/20 09:23:26;;;;;;;19.85;11.15;;;;;;;;;;6342232;22;20150;-63
2023/01/20 09:25:52;;;;;;;22.23;11.93;;;;;;;;;;6341761;22;20146;-62
2023/01/20 09:28:18;;;;;;;25.20;12.20;;;;;;;;;;6341566;22;20138;-62
2023/01/20 09:30:44;;;;;;;19.98;11.07;;;;;;;;;;6340744;22;20150;-60
2023/01/20 09:33:11;;;;;;;21.23;11.90;;;;;;;;;;6341917;22;20142;-64
2023/01/20 09:35:36;;;;;;;21.00;11.07;;;;;;;;;;6341887;22;20142;-62
2023/01/20 09:43:54;;;;;;;22.45;11.60;;;;;;;;;;6341713;22;20545;-62
2023/01/20 09:46:38;;;;;;;21.17;11.65;;;;;;;;;;6341628;22;20130;-62
2023/01/20 09:55:02;;;;;;;16.90;9.52;;;;;;;;;;6341618;22;20158;-62
2023/01/20 09:57:30;;;;;;;17.50;9.77;;;;;;;;;;6341337;22;20569;-62
2023/01/20 10:00:08;;;;;;;18.77;9.93;;;;;;;;;;6341473;22;20170;-63
2023/01/20 10:02:35;;;;;;;18.48;9.95;;;;;;;;;;6341688;22;20210;-61
2023/01/20 10:05:04;;;;;;;16.05;9.13;;;;;;;;;;6341570;22;20148;-62
2023/01/20 10:07:50;;;;;;;15.23;8.63;;;;;;;;;;6341154;22;20149;-63
2023/01/20 10:10:21;;;;;;;16.48;9.98;;;;;;;;;;6341864;22;20211;-62
2023/01/20 10:13:13;;;;;;;17.63;9.65;;;;;;;;;;6341693;22;20126;-61
2023/01/20 10:15:42;;;;;;;16.80;10.15;;;;;;;;;;6341847;22;20484;-62
2023/01/20 10:18:16;;;;;;;22.15;11.32;;;;;;;;;;6341654;22;20248;-62
2023/01/20 10:20:50;;;;;;;20.80;10.88;;;;;;;;;;6341309;22;20211;-62
2023/01/20 10:23:20;;;;;;;18.10;10.43;;;;;;;;;;6341679;22;20173;-62
2023/01/20 10:25:49;;;;;;;22.23;11.77;;;;;;;;;;6341859;22;20179;-62
2023/01/20 10:28:18;;;;;;;18.25;10.07;;;;;;;;;;6342700;22;20157;-62
2023/01/20 10:30:44;;;;;;;17.52;10.18;;;;;;;;;;6342723;22;20446;-62
2023/01/20 10:33:24;;;;;;;20.52;10.93;;;;;;;;;;6342343;22;20178;-62
2023/01/20 10:35:51;;;;;;;16.60;9.32;;;;;;;;;;6342418;22;20141;-62
2023/01/20 10:38:26;;;;;;;17.08;9.80;;;;;;;;;;6342164;22;20178;-62
2023/01/20 10:41:17;;;;;;;17.98;9.57;;;;;;;;;;6342305;22;20173;-62
2023/01/20 10:43:43;;;;;;;16.42;9.23;;;;;;;;;;6328918;22;20142;-62
2023/01/20 10:46:25;;;;;;;15.02;9.00;;;;;;;;;;6342763;22;20451;-62
2023/01/20 10:49:06;;;;;;;18.00;9.77;;;;;;;;;;6343679;22;20410;-62
2023/01/20 10:51:44;;;;;;;15.55;9.02;;;;;;;;;;6343537;22;20150;-63
2023/01/20 10:54:25;;;;;;;18.77;10.10;;;;;;;;;;6343212;22;20137;-62
2023/01/20 10:56:54;;;;;;;17.08;8.02;;;;;;;;;;6343034;22;20143;-63
2023/01/20 10:59:35;;;;;;;15.52;8.60;;;;;;;;;;6343154;22;20166;-63
2023/01/20 11:02:23;;;;;;;15.18;8.68;;;;;;;;;;6343099;22;20139;-63
2023/01/20 11:04:52;;;;;;;15.57;8.30;;;;;;;;;;6322091;22;20184;-63
2023/01/20 11:07:18;;;;;;;17.15;8.95;;;;;;;;;;6342986;22;20221;-63
2023/01/20 11:09:46;;;;;;;13.70;8.13;;;;;;;;;;6343129;22;20146;-63
2023/01/20 11:12:15;;;;;;;16.40;9.05;;;;;;;;;;6343023;22;20170;-63
2023/01/20 11:14:41;;;;;;;15.38;8.48;;;;;;;;;;6343127;22;20173;-62
2023/01/20 11:17:12;;;;;;;16.95;7.88;;;;;;;;;;6342715;22;20569;-63
2023/01/20 11:19:46;;;;;;;12.98;7.80;;;;;;;;;;6343598;22;20211;-62
2023/01/20 11:22:13;;;;;;;13.48;7.70;;;;;;;;;;6342577;22;20165;-62
2023/01/20 11:24:43;;;;;;;13.68;7.88;;;;;;;;;;6343165;22;20225;-62
2023/01/20 11:27:14;;;;;;;14.80;8.10;;;;;;;;;;6342720;22;20153;-63
2023/01/20 11:29:42;;;;;;;17.35;9.30;;;;;;;;;;6342713;22;20557;-63
2023/01/20 11:32:28;;;;;;;16.52;9.18;;;;;;;;;;6343218;22;20146;-62
2023/01/20 11:34:55;;;;;;;15.63;8.43;;;;;;;;;;6321555;22;20157;-62
2023/01/20 11:37:24;;;;;;;14.85;8.40;;;;;;;;;;6344315;22;20146;-63
2023/01/20 11:39:53;;;;;;;17.80;9.02;;;;;;;;;;6361324;22;20162;-62
2023/01/20 11:42:19;;;;;;;17.05;7.97;;;;;;;;;;6361379;22;20149;-63
2023/01/20 11:44:45;;;;;;;15.52;8.52;;;;;;;;;;6358858;22;20138;-63
2023/01/20 11:47:28;;;;;;;21.10;9.38;;;;;;;;;;6353460;22;20134;-63
2023/01/20 11:50:03;;;;;;;17.55;9.45;;;;;;;;;;6351605;22;20157;-63
2023/01/20 11:52:29;;;;;;;16.45;8.45;;;;;;;;;;6349437;22;20171;-62
2023/01/20 11:55:09;;;;;;;17.05;9.00;;;;;;;;;;6346126;22;20192;-63
2023/01/20 11:57:37;;;;;;;15.77;8.82;;;;;;;;;;6342852;22;20146;-62
2023/01/20 12:00:03;;;;;;;17.85;9.52;;;;;;;;;;6342559;22;20455;-62
2023/01/20 12:02:30;;;;;;;17.52;9.07;;;;;;;;;;6342483;22;20142;-62
2023/01/20 12:05:07;;;;;;;16.67;8.73;;;;;;;;;;6342503;22;20162;-63
2023/01/20 12:07:47;;;;;;;18.25;8.75;;;;;;;;;;6342485;22;20134;-62
2023/01/20 12:10:15;;;;;;;15.05;8.23;;;;;;;;;;6342926;22;20221;-62
2023/01/20 12:12:47;;;;;;;17.50;9.07;;;;;;;;;;6342104;22;20142;-62
2023/01/20 12:15:16;;;;;;;16.17;9.07;;;;;;;;;;6342628;22;20153;-62
2023/01/20 12:17:51;;;;;;;16.95;9.05;;;;;;;;;;6342371;22;20150;-64
2023/01/20 12:20:28;;;;;;;15.82;8.23;;;;;;;;;;6342179;22;20178;-61
2023/01/20 12:23:00;;;;;;;20.55;9.27;;;;;;;;;;6342096;22;20146;-62
2023/01/20 12:25:29;;;;;;;15.50;8.10;;;;;;;;;;6342029;22;20537;-63
2023/01/20 12:27:57;;;;;;;16.70;8.82;;;;;;;;;;6341945;22;20142;-63
2023/01/20 12:30:29;;;;;;;17.73;9.07;;;;;;;;;;6342309;22;20256;-63
2023/01/20 12:32:55;;;;;;;15.63;8.05;;;;;;;;;;6366896;22;20146;-62
2023/01/20 12:35:23;;;;;;;15.60;8.57;;;;;;;;;;6341944;22;20215;-62
2023/01/20 12:37:56;;;;;;;18.55;9.10;;;;;;;;;;6341796;22;20153;-62
2023/01/20 12:40:37;;;;;;;17.35;8.90;;;;;;;;;;6342413;22;20253;-62
2023/01/20 12:43:12;;;;;;;18.73;9.30;;;;;;;;;;6342472;22;20156;-62
2023/01/20 12:45:52;;;;;;;14.77;8.38;;;;;;;;;;6342055;22;20176;-63
2023/01/20 12:48:24;;;;;;;13.55;8.20;;;;;;;;;;6342152;22;20191;-61
2023/01/20 12:51:10;;;;;;;18.55;9.30;;;;;;;;;;6342200;22;20626;-63
2023/01/20 12:53:39;;;;;;;17.05;9.45;;;;;;;;;;6341417;22;20613;-63
2023/01/20 12:56:18;;;;;;;20.65;9.88;;;;;;;;;;6342074;22;20142;-62
2023/01/20 12:59:03;;;;;;;16.38;8.80;;;;;;;;;;6341790;22;20429;-63
2023/01/20 13:01:42;;;;;;;19.58;9.70;;;;;;;;;;6341993;22;20149;-63
2023/01/20 13:04:15;;;;;;;15.43;9.30;;;;;;;;;;6341934;22;20536;-63
2023/01/20 13:06:53;;;;;;;15.43;8.95;;;;;;;;;;6341689;22;20456;-63
2023/01/20 13:09:22;;;;;;;20.98;9.40;;;;;;;;;;6341889;22;20233;-63
2023/01/20 13:12:04;;;;;;;21.38;9.95;;;;;;;;;;6342094;22;20146;-63
2023/01/20 13:14:39;;;;;;;20.13;10.13;;;;;;;;;;6341450;22;20545;-63
2023/01/20 13:17:24;;;;;;;19.40;10.10;;;;;;;;;;6341991;22;20436;-63
2023/01/20 13:19:51;;;;;;;16.92;9.18;;;;;;;;;;6342043;22;20197;-63
2023/01/20 13:22:19;;;;;;;20.77;10.00;;;;;;;;;;6341590;22;20165;-63
2023/01/20 13:24:46;;;;;;;17.83;9.15;;;;;;;;;;6341574;22;20138;-62
2023/01/20 13:27:13;;;;;;;18.08;10.02;;;;;;;;;;6342020;22;20146;-62
2023/01/20 13:29:51;;;;;;;16.88;8.77;;;;;;;;;;6341580;22;20166;-62
2023/01/20 13:32:32;;;;;;;22.80;9.10;;;;;;;;;;6341691;22;20202;-61
2023/01/20 13:34:59;;;;;;;17.27;8.85;;;;;;;;;;6366518;22;20187;-61
2023/01/20 13:37:27;;;;;;;18.90;8.85;;;;;;;;;;6341885;22;20150;-61
2023/01/20 13:39:53;;;;;;;20.45;9.30;;;;;;;;;;6341824;22;20162;-62
2023/01/20 13:42:38;;;;;;;19.02;9.25;;;;;;;;;;6341690;22;20184;-62
2023/01/20 13:45:13;;;;;;;18.75;9.45;;;;;;;;;;6341796;22;20206;-61
2023/01/20 13:47:51;;;;;;;17.25;9.80;;;;;;;;;;6341770;22;20142;-62
2023/01/20 13:50:23;;;;;;;22.35;9.82;;;;;;;;;;6341828;22;20142;-62
2023/01/20 13:52:52;;;;;;;20.15;10.00;;;;;;;;;;6341693;22;20149;-61
2023/01/20 13:55:28;;;;;;;18.73;10.45;;;;;;;;;;6341879;22;20557;-62
2023/01/20 13:57:54;;;;;;;17.55;9.18;;;;;;;;;;6342269;22;20177;-60
2023/01/20 14:00:20;;;;;;;17.67;9.68;;;;;;;;;;6342359;22;20161;-61
2023/01/20 14:02:47;;;;;;;18.65;9.15;;;;;;;;;;6342496;22;20146;-63
2023/01/20 14:05:42;;;;;;;16.83;8.70;;;;;;;;;;6341633;22;20504;-62
2023/01/20 14:08:14;;;;;;;18.38;9.43;;;;;;;;;;6315772;22;20415;-63
2023/01/20 14:10:40;;;;;;;18.35;9.50;;;;;;;;;;6341122;22;20142;-62
2023/01/20 14:13:23;;;;;;;18.85;10.10;;;;;;;;;;6340991;22;20146;-62
2023/01/20 14:15:53;;;;;;;19.38;9.35;;;;;;;;;;6340949;22;20138;-63
2023/01/20 14:18:20;;;;;;;17.40;9.73;;;;;;;;;;6341046;22;20157;-63
2023/01/20 14:21:03;;;;;;;17.75;9.73;;;;;;;;;;6341027;22;20177;-63
2023/01/20 14:23:31;;;;;;;18.23;9.15;;;;;;;;;;6341090;22;20176;-63
2023/01/20 14:26:01;;;;;;;18.45;8.85;;;;;;;;;;6341201;22;20498;-61
2023/01/20 14:28:27;;;;;;;18.10;9.60;;;;;;;;;;6340941;22;20118;-63
2023/01/20 14:31:12;;;;;;;22.75;10.25;;;;;;;;;;6341249;22;20229;-63
2023/01/20 14:33:53;;;;;;;21.15;9.88;;;;;;;;;;6340960;22;20157;-62
2023/01/20 14:36:20;;;;;;;19.52;10.05;;;;;;;;;;6341133;22;20210;-63
2023/01/20 14:38:52;;;;;;;15.63;9.38;;;;;;;;;;6341210;22;20158;-63
2023/01/20 14:41:25;;;;;;;20.27;9.60;;;;;;;;;;6341227;22;20187;-63
2023/01/20 14:43:51;;;;;;;19.25;10.10;;;;;;;;;;6341157;22;20154;-63
2023/01/20 14:46:17;;;;;;;17.90;9.52;;;;;;;;;;6341242;22;20138;-63